sensor_id;sensor_type;location;lat;lon;timestamp;pressure;altitude;pressure_sealevel;temperature;humidity
29467;BME280;60968;37.490;-122.288;2023-03-01T00:02:44;98128.84;;;9.04;100.00
29467;BME280;60968;37.490;-122.288;2023-03-01T00:05:48;98122.25;;;8.88;100.00
29467;BME280;60968;37.490;-122.288;2023-03-01T00:08:49;98109.63;;;8.71;100.00
29467;BME280;60968;37.490;-122.288;2023-03-01T00:11:52;98104.69;;;8.58;100.00
29467;BME280;60968;37.490;-122.288;2023-03-01T00:14:53;98111.34;;;8.70;100.00
29467;BME280;60968;37.490;-122.288;2023-03-01T00:17:54;98107.78;;;8.76;100.00
29467;BME280;60968;37.490;-122.288;2023-03-01T00:20:55;98115.91;;;8.59;100.00
29467;BME280;60968;37.490;-122.288;2023-03-01T00:23:57;98100.72;;;8.39;100.00
29467;BME280;60968;37.490;-122.288;2023-03-01T00:26:58;98089.75;;;8.24;100.00
29467;BME280;60968;37.490;-122.288;2023-03-01T00:30:00;98092.53;;;8.15;100.00
29467;BME280;60968;37.490;-122.288;2023-03-01T00:33:01;98073.53;;;8.15;100.00
29467;BME280;60968;37.490;-122.288;2023-03-01T00:36:03;98088.00;;;8.25;100.00
29467;BME280;60968;37.490;-122.288;2023-03-01T00:39:07;98080.38;;;8.19;100.00
29467;BME280;60968;37.490;-122.288;2023-03-01T00:42:08;98090.31;;;7.95;100.00
29467;BME280;60968;37.490;-122.288;2023-03-01T00:45:09;98081.03;;;7.82;100.00
29467;BME280;60968;37.490;-122.288;2023-03-01T00:48:13;98086.19;;;7.85;100.00
29467;BME280;60968;37.490;-122.288;2023-03-01T00:51:25;98082.06;;;7.73;100.00
29467;BME280;60968;37.490;-122.288;2023-03-01T00:54:29;98085.59;;;7.69;100.00
29467;BME280;60968;37.490;-122.288;2023-03-01T00:57:39;98074.41;;;7.67;100.00
29467;BME280;60968;37.490;-122.288;2023-03-01T01:00:43;98076.97;;;7.68;100.00
29467;BME280;60968;37.490;-122.288;2023-03-01T01:03:53;98076.94;;;7.70;100.00
29467;BME280;60968;37.490;-122.288;2023-03-01T01:06:54;98082.19;;;7.67;100.00
29467;BME280;60968;37.490;-122.288;2023-03-01T01:09:56;98083.88;;;7.66;100.00
29467;BME280;60968;37.490;-122.288;2023-03-01T01:12:57;98070.25;;;7.55;100.00
29467;BME280;60968;37.490;-122.288;2023-03-01T01:16:01;98070.53;;;7.38;100.00
29467;BME280;60968;37.490;-122.288;2023-03-01T01:19:02;98081.81;;;7.37;100.00
29467;BME280;60968;37.490;-122.288;2023-03-01T01:22:04;98091.50;;;7.24;100.00
29467;BME280;60968;37.490;-122.288;2023-03-01T01:25:05;98097.56;;;7.23;100.00
29467;BME280;60968;37.490;-122.288;2023-03-01T01:28:09;98091.69;;;7.12;100.00
29467;BME280;60968;37.490;-122.288;2023-03-01T01:31:13;98070.34;;;6.94;100.00
29467;BME280;60968;37.490;-122.288;2023-03-01T01:34:16;98072.09;;;6.94;100.00
29467;BME280;60968;37.490;-122.288;2023-03-01T01:37:19;98076.38;;;6.96;100.00
29467;BME280;60968;37.490;-122.288;2023-03-01T01:40:21;98080.66;;;6.97;100.00
29467;BME280;60968;37.490;-122.288;2023-03-01T01:43:31;98063.50;;;6.90;100.00
29467;BME280;60968;37.490;-122.288;2023-03-01T01:46:41;98074.03;;;6.78;100.00
29467;BME280;60968;37.490;-122.288;2023-03-01T01:49:47;98068.13;;;6.68;100.00
29467;BME280;60968;37.490;-122.288;2023-03-01T01:52:49;98084.53;;;6.68;100.00
29467;BME280;60968;37.490;-122.288;2023-03-01T01:55:55;98079.41;;;6.65;100.00
29467;BME280;60968;37.490;-122.288;2023-03-01T01:58:57;98082.81;;;6.67;100.00
29467;BME280;60968;37.490;-122.288;2023-03-01T02:02:03;98093.25;;;6.61;100.00
29467;BME280;60968;37.490;-122.288;2023-03-01T02:05:26;98089.00;;;6.57;100.00
29467;BME280;60968;37.490;-122.288;2023-03-01T02:08:33;98094.06;;;6.65;100.00
29467;BME280;60968;37.490;-122.288;2023-03-01T02:11:36;98092.38;;;6.64;100.00
29467;BME280;60968;37.490;-122.288;2023-03-01T02:14:37;98093.19;;;6.66;100.00
29467;BME280;60968;37.490;-122.288;2023-03-01T02:17:38;98096.66;;;6.65;100.00
29467;BME280;60968;37.490;-122.288;2023-03-01T02:24:38;98086.47;;;6.51;100.00
29467;BME280;60968;37.490;-122.288;2023-03-01T02:31:19;98057.97;;;6.56;100.00
29467;BME280;60968;37.490;-122.288;2023-03-01T02:34:23;98059.72;;;6.52;100.00
29467;BME280;60968;37.490;-122.288;2023-03-01T02:37:26;98064.06;;;6.50;100.00
29467;BME280;60968;37.490;-122.288;2023-03-01T02:40:29;98058.91;;;6.47;100.00
29467;BME280;60968;37.490;-122.288;2023-03-01T02:43:32;98052.09;;;6.43;100.00
29467;BME280;60968;37.490;-122.288;2023-03-01T02:46:33;98053.88;;;6.38;100.00
29467;BME280;60968;37.490;-122.288;2023-03-01T02:49:36;98066.94;;;6.27;100.00
29467;BME280;60968;37.490;-122.288;2023-03-01T02:52:46;98062.63;;;6.24;100.00
29467;BME280;60968;37.490;-122.288;2023-03-01T02:55:53;98060.13;;;6.20;100.00
29467;BME280;60968;37.490;-122.288;2023-03-01T02:58:54;98055.91;;;6.11;100.00
29467;BME280;60968;37.490;-122.288;2023-03-01T03:01:56;98047.22;;;6.16;100.00
29467;BME280;60968;37.490;-122.288;2023-03-01T03:04:57;98046.38;;;6.17;100.00
29467;BME280;60968;37.490;-122.288;2023-03-01T03:07:59;98057.56;;;6.18;100.00
29467;BME280;60968;37.490;-122.288;2023-03-01T03:11:03;98044.72;;;6.07;100.00
29467;BME280;60968;37.490;-122.288;2023-03-01T03:14:08;98045.66;;;6.01;100.00
29467;BME280;60968;37.490;-122.288;2023-03-01T03:17:09;98043.06;;;6.03;100.00
29467;BME280;60968;37.490;-122.288;2023-03-01T03:20:11;98050.84;;;6.01;100.00
29467;BME280;60968;37.490;-122.288;2023-03-01T03:23:13;98042.22;;;6.03;100.00
29467;BME280;60968;37.490;-122.288;2023-03-01T03:26:14;98038.69;;;6.08;100.00
29467;BME280;60968;37.490;-122.288;2023-03-01T03:29:15;98043.97;;;5.97;100.00
29467;BME280;60968;37.490;-122.288;2023-03-01T03:32:16;98041.38;;;6.02;100.00
29467;BME280;60968;37.490;-122.288;2023-03-01T03:35:17;98049.88;;;6.10;100.00
29467;BME280;60968;37.490;-122.288;2023-03-01T03:38:19;98050.78;;;6.05;100.00
29467;BME280;60968;37.490;-122.288;2023-03-01T03:41:20;98042.28;;;5.93;100.00
29467;BME280;60968;37.490;-122.288;2023-03-01T03:44:21;98044.13;;;5.80;100.00
29467;BME280;60968;37.490;-122.288;2023-03-01T03:47:23;98047.69;;;5.72;100.00
29467;BME280;60968;37.490;-122.288;2023-03-01T03:50:24;98051.22;;;5.61;100.00
29467;BME280;60968;37.490;-122.288;2023-03-01T03:53:27;98042.63;;;5.58;100.00
29467;BME280;60968;37.490;-122.288;2023-03-01T03:56:28;98046.13;;;5.54;100.00
29467;BME280;60968;37.490;-122.288;2023-03-01T03:59:29;98055.63;;;5.53;100.00
29467;BME280;60968;37.490;-122.288;2023-03-01T04:02:30;98053.97;;;5.44;100.00
29467;BME280;60968;37.490;-122.288;2023-03-01T04:05:31;98058.22;;;5.47;100.00
29467;BME280;60968;37.490;-122.288;2023-03-01T04:08:32;98057.47;;;5.39;100.00
29467;BME280;60968;37.490;-122.288;2023-03-01T04:11:34;98066.91;;;5.40;100.00
29467;BME280;60968;37.490;-122.288;2023-03-01T04:14:35;98067.81;;;5.36;100.00
29467;BME280;60968;37.490;-122.288;2023-03-01T04:17:36;98069.63;;;5.24;100.00
29467;BME280;60968;37.490;-122.288;2023-03-01T04:20:37;98068.81;;;5.16;100.00
29467;BME280;60968;37.490;-122.288;2023-03-01T04:23:38;98068.88;;;5.10;100.00
29467;BME280;60968;37.490;-122.288;2023-03-01T04:26:39;98076.69;;;5.04;100.00
29467;BME280;60968;37.490;-122.288;2023-03-01T04:29:40;98070.69;;;4.98;100.00
29467;BME280;60968;37.490;-122.288;2023-03-01T04:32:41;98068.94;;;5.01;100.00
29467;BME280;60968;37.490;-122.288;2023-03-01T04:35:42;98071.53;;;4.96;100.00
29467;BME280;60968;37.490;-122.288;2023-03-01T04:38:43;98078.38;;;5.03;100.00
29467;BME280;60968;37.490;-122.288;2023-03-01T04:41:44;98077.56;;;4.98;100.00
29467;BME280;60968;37.490;-122.288;2023-03-01T04:44:45;98068.13;;;4.94;100.00
29467;BME280;60968;37.490;-122.288;2023-03-01T04:47:47;98076.72;;;4.94;100.00
29467;BME280;60968;37.490;-122.288;2023-03-01T04:50:48;98075.00;;;4.98;100.00
29467;BME280;60968;37.490;-122.288;2023-03-01T04:53:49;98092.19;;;4.96;100.00
29467;BME280;60968;37.490;-122.288;2023-03-01T04:56:50;98090.50;;;4.96;100.00
29467;BME280;60968;37.490;-122.288;2023-03-01T04:59:51;98088.78;;;4.89;100.00
29467;BME280;60968;37.490;-122.288;2023-03-01T05:02:54;98096.53;;;4.89;100.00
29467;BME280;60968;37.490;-122.288;2023-03-01T05:05:58;98088.03;;;4.75;100.00
29467;BME280;60968;37.490;-122.288;2023-03-01T05:08:59;98093.16;;;4.78;100.00
29467;BME280;60968;37.490;-122.288;2023-03-01T05:12:03;98093.16;;;4.84;100.00
29467;BME280;60968;37.490;-122.288;2023-03-01T05:15:05;98087.13;;;4.79;100.00
29467;BME280;60968;37.490;-122.288;2023-03-01T05:18:11;98082.81;;;4.79;100.00
29467;BME280;60968;37.490;-122.288;2023-03-01T05:21:14;98068.22;;;4.81;100.00
29467;BME280;60968;37.490;-122.288;2023-03-01T05:24:18;98070.81;;;4.78;100.00
29467;BME280;60968;37.490;-122.288;2023-03-01T05:27:20;98069.97;;;4.72;100.00
29467;BME280;60968;37.490;-122.288;2023-03-01T05:30:21;98074.34;;;4.54;100.00
29467;BME280;60968;37.490;-122.288;2023-03-01T05:33:23;98072.63;;;4.59;100.00
29467;BME280;60968;37.490;-122.288;2023-03-01T05:36:24;98076.94;;;4.60;100.00
29467;BME280;60968;37.490;-122.288;2023-03-01T05:39:27;98084.66;;;4.63;100.00
29467;BME280;60968;37.490;-122.288;2023-03-01T05:42:31;98083.78;;;4.64;100.00
29467;BME280;60968;37.490;-122.288;2023-03-01T05:45:32;98082.94;;;4.66;100.00
29467;BME280;60968;37.490;-122.288;2023-03-01T05:48:33;98082.06;;;4.65;100.00
29467;BME280;60968;37.490;-122.288;2023-03-01T05:51:34;98083.78;;;4.66;100.00
29467;BME280;60968;37.490;-122.288;2023-03-01T05:54:35;98071.78;;;4.59;100.00
29467;BME280;60968;37.490;-122.288;2023-03-01T05:57:36;98058.00;;;4.61;100.00
29467;BME280;60968;37.490;-122.288;2023-03-01T06:00:36;98057.16;;;4.56;100.00
29467;BME280;60968;37.490;-122.288;2023-03-01T06:03:37;98050.28;;;4.54;100.00
29467;BME280;60968;37.490;-122.288;2023-03-01T06:06:38;98053.72;;;4.59;100.00
29467;BME280;60968;37.490;-122.288;2023-03-01T06:09:39;98050.34;;;4.46;100.00
29467;BME280;60968;37.490;-122.288;2023-03-01T06:12:41;98037.44;;;4.41;100.00
29467;BME280;60968;37.490;-122.288;2023-03-01T06:15:42;98021.16;;;4.36;100.00
29467;BME280;60968;37.490;-122.288;2023-03-01T06:18:43;98014.28;;;4.37;100.00
29467;BME280;60968;37.490;-122.288;2023-03-01T06:21:44;98014.28;;;4.34;100.00
29467;BME280;60968;37.490;-122.288;2023-03-01T06:24:45;98026.31;;;4.32;100.00
29467;BME280;60968;37.490;-122.288;2023-03-01T06:27:46;98018.66;;;4.22;100.00
29467;BME280;60968;37.490;-122.288;2023-03-01T06:30:47;98028.06;;;4.29;100.00
29467;BME280;60968;37.490;-122.288;2023-03-01T06:33:50;98022.03;;;4.27;100.00
29467;BME280;60968;37.490;-122.288;2023-03-01T06:36:51;98020.38;;;4.23;100.00
29467;BME280;60968;37.490;-122.288;2023-03-01T06:39:51;98011.75;;;4.24;100.00
29467;BME280;60968;37.490;-122.288;2023-03-01T06:42:54;98016.91;;;4.24;100.00
29467;BME280;60968;37.490;-122.288;2023-03-01T06:45:55;98015.22;;;4.17;100.00
29467;BME280;60968;37.490;-122.288;2023-03-01T06:48:56;98011.72;;;4.32;100.00
29467;BME280;60968;37.490;-122.288;2023-03-01T06:51:57;98024.53;;;4.43;100.00
29467;BME280;60968;37.490;-122.288;2023-03-01T06:54:58;98026.28;;;4.44;100.00
29467;BME280;60968;37.490;-122.288;2023-03-01T06:58:01;98033.09;;;4.53;100.00
29467;BME280;60968;37.490;-122.288;2023-03-01T07:01:08;98016.84;;;4.38;100.00
29467;BME280;60968;37.490;-122.288;2023-03-01T07:04:11;98011.69;;;4.38;100.00
29467;BME280;60968;37.490;-122.288;2023-03-01T07:07:12;98012.63;;;4.26;100.00
29467;BME280;60968;37.490;-122.288;2023-03-01T07:10:13;98010.06;;;4.17;100.00
29467;BME280;60968;37.490;-122.288;2023-03-01T07:13:15;98004.97;;;4.08;100.00
29467;BME280;60968;37.490;-122.288;2023-03-01T07:16:16;98011.81;;;4.07;100.00
29467;BME280;60968;37.490;-122.288;2023-03-01T07:19:17;98019.53;;;4.15;100.00
29467;BME280;60968;37.490;-122.288;2023-03-01T07:22:19;98028.09;;;4.22;100.00
29467;BME280;60968;37.490;-122.288;2023-03-01T07:25:20;98033.28;;;4.14;100.00
29467;BME280;60968;37.490;-122.288;2023-03-01T07:28:24;98030.81;;;3.86;100.00
29467;BME280;60968;37.490;-122.288;2023-03-01T07:31:25;98014.53;;;3.69;100.00
29467;BME280;60968;37.490;-122.288;2023-03-01T07:34:26;98007.69;;;3.55;100.00
29467;BME280;60968;37.490;-122.288;2023-03-01T07:37:27;98011.97;;;3.58;100.00
29467;BME280;60968;37.490;-122.288;2023-03-01T07:40:28;98009.44;;;3.52;100.00
29467;BME280;60968;37.490;-122.288;2023-03-01T07:43:30;98005.16;;;3.40;100.00
29467;BME280;60968;37.490;-122.288;2023-03-01T07:46:31;97999.16;;;3.27;100.00
29467;BME280;60968;37.490;-122.288;2023-03-01T07:49:33;98018.03;;;3.23;100.00
29467;BME280;60968;37.490;-122.288;2023-03-01T07:52:33;98024.91;;;3.16;100.00
29467;BME280;60968;37.490;-122.288;2023-03-01T07:55:34;98040.34;;;3.13;100.00
29467;BME280;60968;37.490;-122.288;2023-03-01T07:58:41;98035.22;;;3.04;100.00
29467;BME280;60968;37.490;-122.288;2023-03-01T08:01:43;98020.63;;;2.94;100.00
29467;BME280;60968;37.490;-122.288;2023-03-01T08:04:43;98021.50;;;3.09;100.00
29467;BME280;60968;37.490;-122.288;2023-03-01T08:07:44;98023.19;;;3.18;100.00
29467;BME280;60968;37.490;-122.288;2023-03-01T08:10:45;98015.47;;;3.04;100.00
29467;BME280;60968;37.490;-122.288;2023-03-01T08:13:48;98026.63;;;3.08;100.00
29467;BME280;60968;37.490;-122.288;2023-03-01T08:16:49;98030.06;;;3.08;100.00
29467;BME280;60968;37.490;-122.288;2023-03-01T08:19:50;98022.31;;;3.02;100.00
29467;BME280;60968;37.490;-122.288;2023-03-01T08:22:51;98036.91;;;3.03;100.00
29467;BME280;60968;37.490;-122.288;2023-03-01T08:25:52;98043.78;;;3.06;100.00
29467;BME280;60968;37.490;-122.288;2023-03-01T08:28:53;98048.94;;;3.03;100.00
29467;BME280;60968;37.490;-122.288;2023-03-01T08:31:54;98039.50;;;2.99;100.00
29467;BME280;60968;37.490;-122.288;2023-03-01T08:34:55;98039.50;;;2.96;100.00
29467;BME280;60968;37.490;-122.288;2023-03-01T08:37:55;98033.47;;;2.87;100.00
29467;BME280;60968;37.490;-122.288;2023-03-01T08:40:59;98043.78;;;2.83;100.00
29467;BME280;60968;37.490;-122.288;2023-03-01T08:44:02;98028.31;;;2.73;100.00
29467;BME280;60968;37.490;-122.288;2023-03-01T08:47:04;98030.88;;;2.66;100.00
29467;BME280;60968;37.490;-122.288;2023-03-01T08:50:05;98028.28;;;2.63;100.00
29467;BME280;60968;37.490;-122.288;2023-03-01T08:53:07;98022.31;;;2.64;100.00
29467;BME280;60968;37.490;-122.288;2023-03-01T08:56:09;98017.16;;;2.59;100.00
29467;BME280;60968;37.490;-122.288;2023-03-01T08:59:14;98030.88;;;2.64;100.00
29467;BME280;60968;37.490;-122.288;2023-03-01T09:02:17;98029.16;;;2.62;100.00
29467;BME280;60968;37.490;-122.288;2023-03-01T09:05:18;98039.47;;;2.66;100.00
29467;BME280;60968;37.490;-122.288;2023-03-01T09:08:19;98035.19;;;2.76;100.00
29467;BME280;60968;37.490;-122.288;2023-03-01T09:11:22;98030.91;;;2.84;100.00
29467;BME280;60968;37.490;-122.288;2023-03-01T09:14:23;98044.66;;;2.97;100.00
29467;BME280;60968;37.490;-122.288;2023-03-01T09:17:24;98034.34;;;3.02;100.00
29467;BME280;60968;37.490;-122.288;2023-03-01T09:20:25;98032.63;;;2.91;100.00
29467;BME280;60968;37.490;-122.288;2023-03-01T09:23:26;98024.03;;;2.88;100.00
29467;BME280;60968;37.490;-122.288;2023-03-01T09:26:27;98029.16;;;2.74;100.00
29467;BME280;60968;37.490;-122.288;2023-03-01T09:29:28;98029.16;;;2.66;100.00
29467;BME280;60968;37.490;-122.288;2023-03-01T09:32:30;98037.72;;;2.57;100.00
29467;BME280;60968;37.490;-122.288;2023-03-01T09:35:31;98037.72;;;2.56;100.00
29467;BME280;60968;37.490;-122.288;2023-03-01T09:38:33;98029.13;;;2.60;100.00
29467;BME280;60968;37.490;-122.288;2023-03-01T09:44:49;98019.72;;;2.65;100.00
29467;BME280;60968;37.490;-122.288;2023-03-01T09:47:52;98019.72;;;2.64;100.00
29467;BME280;60968;37.490;-122.288;2023-03-01T09:50:54;98023.13;;;2.50;100.00
29467;BME280;60968;37.490;-122.288;2023-03-01T09:53:57;98025.69;;;2.50;100.00
29467;BME280;60968;37.490;-122.288;2023-03-01T09:57:20;98025.69;;;2.49;100.00
29467;BME280;60968;37.490;-122.288;2023-03-01T10:10:54;98008.53;;;2.31;100.00
29467;BME280;60968;37.490;-122.288;2023-03-01T10:20:23;98012.78;;;2.27;100.00
29467;BME280;60968;37.490;-122.288;2023-03-01T10:23:26;98005.06;;;2.24;100.00
29467;BME280;60968;37.490;-122.288;2023-03-01T10:26:52;98004.22;;;2.30;100.00
29467;BME280;60968;37.490;-122.288;2023-03-01T10:33:32;98006.81;;;2.33;100.00
29467;BME280;60968;37.490;-122.288;2023-03-01T10:36:33;97997.38;;;2.32;100.00
29467;BME280;60968;37.490;-122.288;2023-03-01T10:39:34;97996.53;;;2.30;100.00
29467;BME280;60968;37.490;-122.288;2023-03-01T10:42:49;97991.38;;;2.31;100.00
29467;BME280;60968;37.490;-122.288;2023-03-01T10:45:50;97988.81;;;2.30;100.00
29467;BME280;60968;37.490;-122.288;2023-03-01T10:49:21;97989.66;;;2.32;100.00
29467;BME280;60968;37.490;-122.288;2023-03-01T10:52:37;97975.94;;;2.27;100.00
29467;BME280;60968;37.490;-122.288;2023-03-01T10:55:40;97987.06;;;2.22;100.00
29467;BME280;60968;37.490;-122.288;2023-03-01T10:59:01;97990.50;;;2.28;100.00
29467;BME280;60968;37.490;-122.288;2023-03-01T11:05:23;97974.22;;;2.21;100.00
29467;BME280;60968;37.490;-122.288;2023-03-01T11:08:36;97968.22;;;2.16;100.00
29467;BME280;60968;37.490;-122.288;2023-03-01T11:11:37;97964.78;;;2.15;100.00
29467;BME280;60968;37.490;-122.288;2023-03-01T11:14:50;97964.78;;;2.17;100.00
29467;BME280;60968;37.490;-122.288;2023-03-01T11:17:52;97967.31;;;2.12;100.00
29467;BME280;60968;37.490;-122.288;2023-03-01T11:20:55;97975.91;;;2.10;100.00
29467;BME280;60968;37.490;-122.288;2023-03-01T11:24:00;97967.31;;;2.04;100.00
29467;BME280;60968;37.490;-122.288;2023-03-01T11:27:04;97961.34;;;2.07;100.00
29467;BME280;60968;37.490;-122.288;2023-03-01T11:34:11;97966.47;;;2.10;100.00
29467;BME280;60968;37.490;-122.288;2023-03-01T11:50:39;97962.13;;;1.98;100.00
29467;BME280;60968;37.490;-122.288;2023-03-01T11:53:48;97967.28;;;1.94;100.00
29467;BME280;60968;37.490;-122.288;2023-03-01T11:56:57;97966.41;;;1.93;100.00
29467;BME280;60968;37.490;-122.288;2023-03-01T12:06:39;97982.69;;;1.95;100.00
29467;BME280;60968;37.490;-122.288;2023-03-01T12:33:54;98046.91;;;1.91;100.00
29467;BME280;60968;37.490;-122.288;2023-03-01T12:40:53;98044.34;;;1.89;100.00
29467;BME280;60968;37.490;-122.288;2023-03-01T12:48:04;98059.75;;;1.91;100.00
29467;BME280;60968;37.490;-122.288;2023-03-01T12:51:24;98058.91;;;1.96;100.00
29467;BME280;60968;37.490;-122.288;2023-03-01T12:54:32;98068.31;;;1.93;100.00
29467;BME280;60968;37.490;-122.288;2023-03-01T12:57:41;98070.91;;;1.94;100.00
29467;BME280;60968;37.490;-122.288;2023-03-01T13:11:06;98060.63;;;1.94;100.00
29467;BME280;60968;37.490;-122.288;2023-03-01T13:17:33;98067.44;;;1.89;100.00
29467;BME280;60968;37.490;-122.288;2023-03-01T13:23:48;98093.13;;;1.84;100.00
29467;BME280;60968;37.490;-122.288;2023-03-01T13:33:58;98113.59;;;1.77;100.00
29467;BME280;60968;37.490;-122.288;2023-03-01T13:37:23;98133.34;;;1.81;100.00
29467;BME280;60968;37.490;-122.288;2023-03-01T13:43:40;98149.56;;;1.75;100.00
29467;BME280;60968;37.490;-122.288;2023-03-01T13:46:44;98150.38;;;1.71;100.00
29467;BME280;60968;37.490;-122.288;2023-03-01T13:50:02;98167.47;;;1.66;100.00
29467;BME280;60968;37.490;-122.288;2023-03-01T13:53:10;98165.72;;;1.62;100.00
29467;BME280;60968;37.490;-122.288;2023-03-01T13:56:19;98163.13;;;1.62;100.00
29467;BME280;60968;37.490;-122.288;2023-03-01T13:59:22;98175.13;;;1.58;100.00
29467;BME280;60968;37.490;-122.288;2023-03-01T14:02:23;98171.66;;;1.54;100.00
29467;BME280;60968;37.490;-122.288;2023-03-01T14:05:24;98180.22;;;1.55;100.00
29467;BME280;60968;37.490;-122.288;2023-03-01T14:08:27;98187.91;;;1.53;100.00
29467;BME280;60968;37.490;-122.288;2023-03-01T14:14:43;98199.84;;;1.47;100.00
29467;BME280;60968;37.490;-122.288;2023-03-01T14:21:14;98198.09;;;1.44;100.00
29467;BME280;60968;37.490;-122.288;2023-03-01T14:24:21;98208.34;;;1.41;100.00
29467;BME280;60968;37.490;-122.288;2023-03-01T14:27:30;98205.75;;;1.38;100.00
29467;BME280;60968;37.490;-122.288;2023-03-01T14:30:37;98209.97;;;1.31;100.00
29467;BME280;60968;37.490;-122.288;2023-03-01T14:33:40;98215.94;;;1.32;100.00
29467;BME280;60968;37.490;-122.288;2023-03-01T14:36:41;98221.06;;;1.32;100.00
29467;BME280;60968;37.490;-122.288;2023-03-01T14:39:42;98227.09;;;1.32;100.00
29467;BME280;60968;37.490;-122.288;2023-03-01T14:42:43;98229.69;;;1.37;100.00
29467;BME280;60968;37.490;-122.288;2023-03-01T14:45:48;98238.22;;;1.34;100.00
29467;BME280;60968;37.490;-122.288;2023-03-01T14:48:56;98243.34;;;1.33;100.00
29467;BME280;60968;37.490;-122.288;2023-03-01T14:52:07;98253.59;;;1.33;100.00
29467;BME280;60968;37.490;-122.288;2023-03-01T14:55:20;98250.22;;;1.35;100.00
29467;BME280;60968;37.490;-122.288;2023-03-01T14:58:25;98251.09;;;1.41;100.00
29467;BME280;60968;37.490;-122.288;2023-03-01T15:01:26;98252.81;;;1.39;100.00
29467;BME280;60968;37.490;-122.288;2023-03-01T15:04:29;98256.28;;;1.44;100.00
29467;BME280;60968;37.490;-122.288;2023-03-01T15:07:34;98265.00;;;1.60;100.00
29467;BME280;60968;37.490;-122.288;2023-03-01T15:10:36;98272.81;;;1.72;100.00
29467;BME280;60968;37.490;-122.288;2023-03-01T15:13:37;98278.09;;;1.84;100.00
29467;BME280;60968;37.490;-122.288;2023-03-01T15:16:39;98289.31;;;1.97;100.00
29467;BME280;60968;37.490;-122.288;2023-03-01T15:19:40;98293.66;;;2.06;100.00
29467;BME280;60968;37.490;-122.288;2023-03-01T15:22:43;98298.03;;;2.15;100.00
29467;BME280;60968;37.490;-122.288;2023-03-01T15:25:45;98306.69;;;2.26;100.00
29467;BME280;60968;37.490;-122.288;2023-03-01T15:28:50;98313.63;;;2.38;100.00
29467;BME280;60968;37.490;-122.288;2023-03-01T15:32:00;98324.03;;;2.52;100.00
29467;BME280;60968;37.490;-122.288;2023-03-01T15:38:53;98343.06;;;2.80;100.00
29467;BME280;60968;37.490;-122.288;2023-03-01T15:41:54;98351.72;;;2.90;100.00
29467;BME280;60968;37.490;-122.288;2023-03-01T15:48:18;98341.53;;;3.10;100.00
29467;BME280;60968;37.490;-122.288;2023-03-01T15:51:33;98351.88;;;3.21;100.00
29467;BME280;60968;37.490;-122.288;2023-03-01T15:54:34;98370.81;;;3.29;99.03
29467;BME280;60968;37.490;-122.288;2023-03-01T15:57:35;98369.97;;;3.39;99.28
29467;BME280;60968;37.490;-122.288;2023-03-01T16:00:36;98382.03;;;3.48;98.80
29467;BME280;60968;37.490;-122.288;2023-03-01T16:03:37;98384.66;;;3.59;98.17
29467;BME280;60968;37.490;-122.288;2023-03-01T16:06:37;98386.41;;;3.62;96.51
29467;BME280;60968;37.490;-122.288;2023-03-01T16:09:38;98388.13;;;3.66;97.34
29467;BME280;60968;37.490;-122.288;2023-03-01T16:12:39;98401.88;;;3.74;96.97
29467;BME280;60968;37.490;-122.288;2023-03-01T16:15:43;98401.91;;;3.80;95.75
29467;BME280;60968;37.490;-122.288;2023-03-01T16:18:47;98406.22;;;3.97;97.35
29467;BME280;60968;37.490;-122.288;2023-03-01T16:21:48;98406.28;;;4.06;97.19
29467;BME280;60968;37.490;-122.288;2023-03-01T16:24:49;98408.00;;;4.16;96.47
29467;BME280;60968;37.490;-122.288;2023-03-01T16:27:50;98406.31;;;4.15;93.46
29467;BME280;60968;37.490;-122.288;2023-03-01T16:30:52;98409.75;;;4.26;93.75
29467;BME280;60968;37.490;-122.288;2023-03-01T16:33:56;98417.50;;;4.43;94.72
29467;BME280;60968;37.490;-122.288;2023-03-01T16:36:57;98420.94;;;4.47;91.93
29467;BME280;60968;37.490;-122.288;2023-03-01T16:39:59;98415.81;;;4.52;89.92
29467;BME280;60968;37.490;-122.288;2023-03-01T16:43:00;98416.66;;;4.54;86.29
29467;BME280;60968;37.490;-122.288;2023-03-01T16:46:01;98413.22;;;4.75;91.42
29467;BME280;60968;37.490;-122.288;2023-03-01T16:49:02;98414.06;;;4.85;86.08
29467;BME280;60968;37.490;-122.288;2023-03-01T16:52:03;98415.81;;;4.83;83.12
29467;BME280;60968;37.490;-122.288;2023-03-01T16:55:07;98407.19;;;4.87;84.67
29467;BME280;60968;37.490;-122.288;2023-03-01T16:58:08;98398.56;;;4.89;82.10
29467;BME280;60968;37.490;-122.288;2023-03-01T17:01:18;98408.03;;;5.06;84.38
29467;BME280;60968;37.490;-122.288;2023-03-01T17:04:19;98404.59;;;5.05;76.40
29467;BME280;60968;37.490;-122.288;2023-03-01T17:07:22;98415.72;;;5.23;79.35
29467;BME280;60968;37.490;-122.288;2023-03-01T17:10:33;98426.03;;;5.47;76.18
29467;BME280;60968;37.490;-122.288;2023-03-01T17:13:35;98428.59;;;7.79;65.25
29467;BME280;60968;37.490;-122.288;2023-03-01T17:16:43;98411.75;;;12.98;50.85
29467;BME280;60968;37.490;-122.288;2023-03-01T17:19:47;98418.31;;;14.77;41.41
29467;BME280;60968;37.490;-122.288;2023-03-01T17:22:50;98424.41;;;15.20;39.84
29467;BME280;60968;37.490;-122.288;2023-03-01T17:25:52;98422.91;;;15.95;38.41
29467;BME280;60968;37.490;-122.288;2023-03-01T17:28:55;98411.06;;;16.98;37.98
29467;BME280;60968;37.490;-122.288;2023-03-01T17:31:56;98422.81;;;17.61;34.31
29467;BME280;60968;37.490;-122.288;2023-03-01T17:34:57;98426.50;;;17.92;31.51
29467;BME280;60968;37.490;-122.288;2023-03-01T17:37:58;98421.59;;;18.49;33.35
29467;BME280;60968;37.490;-122.288;2023-03-01T17:41:00;98415.53;;;19.54;31.48
29467;BME280;60968;37.490;-122.288;2023-03-01T17:44:01;98423.94;;;19.76;28.68
29467;BME280;60968;37.490;-122.288;2023-03-01T17:47:03;98422.63;;;18.47;27.67